sensor_id;sensor_type;location;lat;lon;timestamp;pressure;altitude;pressure_sealevel;temperature;humidity
56928;BME280;60850;52.502;13.426;2022-08-20T00:01:06;100772.50;;;21.51;100.00
56928;BME280;60850;52.502;13.426;2022-08-20T00:03:36;100779.00;;;21.48;100.00
56928;BME280;60850;52.502;13.426;2022-08-20T00:06:07;100776.41;;;21.47;100.00
56928;BME280;60850;52.502;13.426;2022-08-20T00:08:34;100777.41;;;21.46;100.00
56928;BME280;60850;52.502;13.426;2022-08-20T00:11:04;100785.75;;;21.43;100.00
56928;BME280;60850;52.502;13.426;2022-08-20T00:13:35;100787.69;;;21.41;100.00
56928;BME280;60850;52.502;13.426;2022-08-20T00:16:03;100795.81;;;21.41;100.00
56928;BME280;60850;52.502;13.426;2022-08-20T00:18:32;100791.50;;;21.38;100.00
56928;BME280;60850;52.502;13.426;2022-08-20T00:21:03;100792.38;;;21.38;100.00
56928;BME280;60850;52.502;13.426;2022-08-20T00:23:30;100795.06;;;21.38;100.00
56928;BME280;60850;52.502;13.426;2022-08-20T00:25:57;100797.03;;;21.36;100.00
56928;BME280;60850;52.502;13.426;2022-08-20T00:28:24;100804.41;;;21.34;100.00
56928;BME280;60850;52.502;13.426;2022-08-20T00:30:51;100803.66;;;21.32;100.00
56928;BME280;60850;52.502;13.426;2022-08-20T00:33:20;100802.09;;;21.28;100.00
56928;BME280;60850;52.502;13.426;2022-08-20T00:35:51;100805.88;;;21.26;100.00
56928;BME280;60850;52.502;13.426;2022-08-20T00:38:19;100807.16;;;21.20;100.00
56928;BME280;60850;52.502;13.426;2022-08-20T00:40:49;100803.59;;;21.20;100.00
56928;BME280;60850;52.502;13.426;2022-08-20T00:43:28;100805.44;;;21.19;100.00
56928;BME280;60850;52.502;13.426;2022-08-20T00:45:57;100802.84;;;21.18;100.00
56928;BME280;60850;52.502;13.426;2022-08-20T00:48:26;100801.22;;;21.15;100.00
56928;BME280;60850;52.502;13.426;2022-08-20T00:51:01;100800.34;;;21.15;100.00
56928;BME280;60850;52.502;13.426;2022-08-20T00:53:29;100802.16;;;21.14;100.00
56928;BME280;60850;52.502;13.426;2022-08-20T00:55:56;100797.66;;;21.15;100.00
56928;BME280;60850;52.502;13.426;2022-08-20T00:58:23;100805.66;;;21.16;100.00
56928;BME280;60850;52.502;13.426;2022-08-20T01:00:52;100810.31;;;21.14;100.00
56928;BME280;60850;52.502;13.426;2022-08-20T01:03:19;100807.59;;;21.14;100.00
56928;BME280;60850;52.502;13.426;2022-08-20T01:05:48;100805.97;;;21.11;100.00
56928;BME280;60850;52.502;13.426;2022-08-20T01:08:19;100820.41;;;21.12;100.00
56928;BME280;60850;52.502;13.426;2022-08-20T01:10:49;100809.00;;;21.07;100.00
56928;BME280;60850;52.502;13.426;2022-08-20T01:13:20;100806.28;;;21.07;100.00
56928;BME280;60850;52.502;13.426;2022-08-20T01:15:52;100808.25;;;21.05;100.00
56928;BME280;60850;52.502;13.426;2022-08-20T01:18:24;100811.94;;;21.04;100.00
56928;BME280;60850;52.502;13.426;2022-08-20T01:20:55;100809.34;;;21.02;100.00
56928;BME280;60850;52.502;13.426;2022-08-20T01:23:33;100809.44;;;21.01;100.00
56928;BME280;60850;52.502;13.426;2022-08-20T01:26:07;100812.16;;;21.01;100.00
56928;BME280;60850;52.502;13.426;2022-08-20T01:28:37;100812.16;;;21.01;100.00
56928;BME280;60850;52.502;13.426;2022-08-20T01:31:07;100814.75;;;21.02;100.00
56928;BME280;60850;52.502;13.426;2022-08-20T01:33:35;100800.22;;;21.03;100.00
56928;BME280;60850;52.502;13.426;2022-08-20T01:36:03;100809.22;;;21.04;100.00
56928;BME280;60850;52.502;13.426;2022-08-20T01:38:31;100804.78;;;21.03;100.00
56928;BME280;60850;52.502;13.426;2022-08-20T01:41:28;100809.09;;;21.05;100.00
56928;BME280;60850;52.502;13.426;2022-08-20T01:43:57;100811.81;;;21.05;100.00
56928;BME280;60850;52.502;13.426;2022-08-20T01:46:27;100814.34;;;21.08;100.00
56928;BME280;60850;52.502;13.426;2022-08-20T01:48:56;100815.31;;;21.07;100.00
56928;BME280;60850;52.502;13.426;2022-08-20T01:51:26;100815.41;;;21.06;100.00
56928;BME280;60850;52.502;13.426;2022-08-20T01:53:55;100815.63;;;21.03;100.00
56928;BME280;60850;52.502;13.426;2022-08-20T01:56:27;100814.09;;;20.99;100.00
56928;BME280;60850;52.502;13.426;2022-08-20T01:58:56;100821.22;;;21.00;100.00
56928;BME280;60850;52.502;13.426;2022-08-20T02:01:28;100818.53;;;21.00;100.00
56928;BME280;60850;52.502;13.426;2022-08-20T02:03:57;100817.34;;;21.04;100.00
56928;BME280;60850;52.502;13.426;2022-08-20T02:06:26;100827.34;;;21.03;100.00
56928;BME280;60850;52.502;13.426;2022-08-20T02:08:55;100821.22;;;21.00;100.00
56928;BME280;60850;52.502;13.426;2022-08-20T02:11:22;100815.81;;;21.00;100.00
56928;BME280;60850;52.502;13.426;2022-08-20T02:13:52;100821.47;;;20.97;100.00
56928;BME280;60850;52.502;13.426;2022-08-20T02:16:21;100826.25;;;20.93;100.00
56928;BME280;60850;52.502;13.426;2022-08-20T02:18:51;100828.28;;;20.90;100.00
56928;BME280;60850;52.502;13.426;2022-08-20T02:21:24;100835.84;;;20.84;100.00
56928;BME280;60850;52.502;13.426;2022-08-20T02:23:53;100835.31;;;20.79;100.00
56928;BME280;60850;52.502;13.426;2022-08-20T02:26:20;100839.06;;;20.77;100.00
56928;BME280;60850;52.502;13.426;2022-08-20T02:28:49;100850.44;;;20.69;100.00
56928;BME280;60850;52.502;13.426;2022-08-20T02:31:20;100847.06;;;20.66;100.00
56928;BME280;60850;52.502;13.426;2022-08-20T02:33:47;100851.22;;;20.57;100.00
56928;BME280;60850;52.502;13.426;2022-08-20T02:36:16;100850.59;;;20.53;100.00
56928;BME280;60850;52.502;13.426;2022-08-20T02:38:45;100854.91;;;20.56;100.00
56928;BME280;60850;52.502;13.426;2022-08-20T02:41:12;100858.03;;;20.50;100.00
56928;BME280;60850;52.502;13.426;2022-08-20T02:43:39;100861.13;;;20.44;100.00
56928;BME280;60850;52.502;13.426;2022-08-20T02:46:07;100853.94;;;20.43;100.00
56928;BME280;60850;52.502;13.426;2022-08-20T02:48:35;100857.47;;;20.45;100.00
56928;BME280;60850;52.502;13.426;2022-08-20T02:51:04;100860.34;;;20.42;100.00
56928;BME280;60850;52.502;13.426;2022-08-20T02:53:34;100860.34;;;20.42;100.00
56928;BME280;60850;52.502;13.426;2022-08-20T02:56:02;100855.13;;;20.39;100.00
56928;BME280;60850;52.502;13.426;2022-08-20T02:58:29;100857.06;;;20.37;100.00
56928;BME280;60850;52.502;13.426;2022-08-20T03:00:57;100848.94;;;20.37;100.00
56928;BME280;60850;52.502;13.426;2022-08-20T03:03:24;100852.63;;;20.36;100.00
56928;BME280;60850;52.502;13.426;2022-08-20T03:05:54;100850.69;;;20.38;100.00
56928;BME280;60850;52.502;13.426;2022-08-20T03:08:22;100841.59;;;20.39;100.00
56928;BME280;60850;52.502;13.426;2022-08-20T03:10:50;100834.44;;;20.38;100.00
56928;BME280;60850;52.502;13.426;2022-08-20T03:13:18;100839.66;;;20.41;100.00
56928;BME280;60850;52.502;13.426;2022-08-20T03:15:48;100842.38;;;20.41;100.00
56928;BME280;60850;52.502;13.426;2022-08-20T03:18:17;100833.38;;;20.40;100.00
56928;BME280;60850;52.502;13.426;2022-08-20T03:20:45;100837.91;;;20.40;100.00
56928;BME280;60850;52.502;13.426;2022-08-20T03:23:15;100845.06;;;20.41;100.00
56928;BME280;60850;52.502;13.426;2022-08-20T03:25:42;100839.88;;;20.38;100.00
56928;BME280;60850;52.502;13.426;2022-08-20T03:28:09;100828.81;;;20.41;100.00
56928;BME280;60850;52.502;13.426;2022-08-20T03:30:37;100825.84;;;20.45;100.00
56928;BME280;60850;52.502;13.426;2022-08-20T03:33:04;100828.72;;;20.42;100.00
56928;BME280;60850;52.502;13.426;2022-08-20T03:35:32;100824.38;;;20.40;100.00
56928;BME280;60850;52.502;13.426;2022-08-20T03:38:00;100827.28;;;20.37;100.00
56928;BME280;60850;52.502;13.426;2022-08-20T03:40:30;100821.09;;;20.35;100.00
56928;BME280;60850;52.502;13.426;2022-08-20T03:42:58;100831.81;;;20.36;100.00
56928;BME280;60850;52.502;13.426;2022-08-20T03:45:26;100837.16;;;20.38;100.00
56928;BME280;60850;52.502;13.426;2022-08-20T03:47:55;100838.03;;;20.38;100.00
56928;BME280;60850;52.502;13.426;2022-08-20T03:50:24;100833.59;;;20.37;100.00
56928;BME280;60850;52.502;13.426;2022-08-20T03:52:52;100839.66;;;20.41;100.00
56928;BME280;60850;52.502;13.426;2022-08-20T03:55:20;100839.06;;;20.36;100.00
56928;BME280;60850;52.502;13.426;2022-08-20T03:57:51;100837.91;;;20.40;100.00
56928;BME280;60850;52.502;13.426;2022-08-20T04:00:20;100836.06;;;20.40;100.00
56928;BME280;60850;52.502;13.426;2022-08-20T04:02:47;100838.78;;;20.40;100.00
56928;BME280;60850;52.502;13.426;2022-08-20T04:05:14;100837.91;;;20.40;100.00
56928;BME280;60850;52.502;13.426;2022-08-20T04:07:41;100840.53;;;20.41;100.00
56928;BME280;60850;52.502;13.426;2022-08-20T04:10:11;100826.88;;;20.43;100.00
56928;BME280;60850;52.502;13.426;2022-08-20T04:12:38;100837.06;;;20.39;100.00
56928;BME280;60850;52.502;13.426;2022-08-20T04:15:09;100844.97;;;20.42;100.00
56928;BME280;60850;52.502;13.426;2022-08-20T04:17:37;100848.53;;;20.43;100.00
56928;BME280;60850;52.502;13.426;2022-08-20T04:20:08;100853.09;;;20.42;100.00
56928;BME280;60850;52.502;13.426;2022-08-20T04:22:35;100858.44;;;20.44;100.00
56928;BME280;60850;52.502;13.426;2022-08-20T04:25:02;100853.81;;;20.46;100.00
56928;BME280;60850;52.502;13.426;2022-08-20T04:27:30;100847.19;;;20.50;100.00
56928;BME280;60850;52.502;13.426;2022-08-20T04:29:58;100841.78;;;20.50;100.00
56928;BME280;60850;52.502;13.426;2022-08-20T04:32:26;100839.75;;;20.53;100.00
56928;BME280;60850;52.502;13.426;2022-08-20T04:34:53;100838.13;;;20.51;100.00
56928;BME280;60850;52.502;13.426;2022-08-20T04:37:21;100838.13;;;20.51;100.00
56928;BME280;60850;52.502;13.426;2022-08-20T04:39:48;100834.22;;;20.55;100.00
56928;BME280;60850;52.502;13.426;2022-08-20T04:42:29;100836.94;;;20.55;100.00
56928;BME280;60850;52.502;13.426;2022-08-20T04:44:56;100836.75;;;20.58;100.00
56928;BME280;60850;52.502;13.426;2022-08-20T04:47:23;100835.84;;;20.57;100.00
56928;BME280;60850;52.502;13.426;2022-08-20T04:49:52;100848.44;;;20.59;100.00
56928;BME280;60850;52.502;13.426;2022-08-20T04:52:25;100846.59;;;20.59;100.00
56928;BME280;60850;52.502;13.426;2022-08-20T04:54:52;100856.56;;;20.59;100.00
56928;BME280;60850;52.502;13.426;2022-08-20T04:57:21;100848.91;;;20.65;100.00
56928;BME280;60850;52.502;13.426;2022-08-20T04:59:50;100862.81;;;20.73;100.00
56928;BME280;60850;52.502;13.426;2022-08-20T05:02:17;100859.00;;;20.76;100.00
56928;BME280;60850;52.502;13.426;2022-08-20T05:04:45;100863.34;;;20.78;100.00
56928;BME280;60850;52.502;13.426;2022-08-20T05:07:15;100863.03;;;20.83;100.00
56928;BME280;60850;52.502;13.426;2022-08-20T05:09:43;100863.50;;;20.90;100.00
56928;BME280;60850;52.502;13.426;2022-08-20T05:12:11;100865.25;;;20.91;100.00
56928;BME280;60850;52.502;13.426;2022-08-20T05:14:39;100872.19;;;20.95;100.00
56928;BME280;60850;52.502;13.426;2022-08-20T05:17:07;100873.19;;;20.94;100.00
56928;BME280;60850;52.502;13.426;2022-08-20T05:19:34;100872.19;;;20.95;100.00
56928;BME280;60850;52.502;13.426;2022-08-20T05:22:02;100868.41;;;20.97;100.00
56928;BME280;60850;52.502;13.426;2022-08-20T05:24:31;100864.41;;;21.03;100.00
56928;BME280;60850;52.502;13.426;2022-08-20T05:26:59;100862.88;;;20.99;100.00
56928;BME280;60850;52.502;13.426;2022-08-20T05:29:27;100863.75;;;20.99;100.00
56928;BME280;60850;52.502;13.426;2022-08-20T05:31:54;100865.06;;;21.06;100.00
56928;BME280;60850;52.502;13.426;2022-08-20T05:34:21;100858.56;;;21.09;100.00
56928;BME280;60850;52.502;13.426;2022-08-20T05:36:50;100868.22;;;21.13;100.00
56928;BME280;60850;52.502;13.426;2022-08-20T05:39:18;100870.28;;;21.09;100.00
56928;BME280;60850;52.502;13.426;2022-08-20T05:41:48;100867.47;;;21.11;100.00
56928;BME280;60850;52.502;13.426;2022-08-20T05:44:16;100866.06;;;21.18;100.00
56928;BME280;60850;52.502;13.426;2022-08-20T05:46:45;100863.34;;;21.18;100.00
56928;BME280;60850;52.502;13.426;2022-08-20T05:49:14;100858.28;;;21.26;100.00
56928;BME280;60850;52.502;13.426;2022-08-20T05:51:42;100867.75;;;21.33;100.00
56928;BME280;60850;52.502;13.426;2022-08-20T05:54:09;100866.56;;;21.37;100.00
56928;BME280;60850;52.502;13.426;2022-08-20T05:56:36;100874.28;;;21.44;100.00
56928;BME280;60850;52.502;13.426;2022-08-20T05:59:06;100872.22;;;21.47;100.00
56928;BME280;60850;52.502;13.426;2022-08-20T06:01:35;100875.59;;;21.51;100.00
56928;BME280;60850;52.502;13.426;2022-08-20T06:04:03;100866.03;;;21.45;100.00
56928;BME280;60850;52.502;13.426;2022-08-20T06:06:48;100873.88;;;21.50;100.00
56928;BME280;60850;52.502;13.426;2022-08-20T06:09:17;100877.75;;;21.46;100.00
56928;BME280;60850;52.502;13.426;2022-08-20T06:11:44;100877.72;;;21.33;100.00
56928;BME280;60850;52.502;13.426;2022-08-20T06:14:13;100882.69;;;21.26;100.00
56928;BME280;60850;52.502;13.426;2022-08-20T06:16:41;100900.22;;;21.21;100.00
56928;BME280;60850;52.502;13.426;2022-08-20T06:19:09;100896.88;;;21.17;100.00
56928;BME280;60850;52.502;13.426;2022-08-20T06:21:36;100889.03;;;21.12;100.00
56928;BME280;60850;52.502;13.426;2022-08-20T06:24:03;100892.63;;;21.13;100.00
56928;BME280;60850;52.502;13.426;2022-08-20T06:26:31;100884.28;;;21.16;100.00
56928;BME280;60850;52.502;13.426;2022-08-20T06:28:59;100894.06;;;21.19;100.00
56928;BME280;60850;52.502;13.426;2022-08-20T06:31:27;100886.13;;;21.16;100.00
56928;BME280;60850;52.502;13.426;2022-08-20T06:33:54;100899.03;;;21.12;100.00
56928;BME280;60850;52.502;13.426;2022-08-20T06:36:22;100895.66;;;21.08;100.00
56928;BME280;60850;52.502;13.426;2022-08-20T06:38:49;100896.72;;;21.06;100.00
56928;BME280;60850;52.502;13.426;2022-08-20T06:41:16;100903.47;;;21.13;100.00
56928;BME280;60850;52.502;13.426;2022-08-20T06:43:44;100900.75;;;21.13;100.00
56928;BME280;60850;52.502;13.426;2022-08-20T06:46:10;100903.47;;;21.13;100.00
56928;BME280;60850;52.502;13.426;2022-08-20T06:48:39;100907.84;;;21.16;100.00
56928;BME280;60850;52.502;13.426;2022-08-20T06:51:06;100896.75;;;21.19;100.00
56928;BME280;60850;52.502;13.426;2022-08-20T06:53:34;100897.22;;;21.25;100.00
56928;BME280;60850;52.502;13.426;2022-08-20T06:56:01;100903.34;;;21.29;100.00
56928;BME280;60850;52.502;13.426;2022-08-20T06:58:29;100907.44;;;21.34;100.00
56928;BME280;60850;52.502;13.426;2022-08-20T07:00:56;100905.31;;;21.39;100.00
56928;BME280;60850;52.502;13.426;2022-08-20T07:03:24;100900.56;;;21.43;100.00
56928;BME280;60850;52.502;13.426;2022-08-20T07:05:53;100904.66;;;21.49;100.00
56928;BME280;60850;52.502;13.426;2022-08-20T07:08:20;100905.88;;;21.45;100.00
56928;BME280;60850;52.502;13.426;2022-08-20T07:10:48;100912.78;;;21.49;100.00
56928;BME280;60850;52.502;13.426;2022-08-20T07:13:15;100912.91;;;21.47;100.00
56928;BME280;60850;52.502;13.426;2022-08-20T07:15:44;100921.59;;;21.52;100.00
56928;BME280;60850;52.502;13.426;2022-08-20T07:18:12;100922.25;;;21.56;100.00
56928;BME280;60850;52.502;13.426;2022-08-20T07:20:40;100931.38;;;21.55;100.00
56928;BME280;60850;52.502;13.426;2022-08-20T07:23:09;100928.88;;;21.52;100.00
56928;BME280;60850;52.502;13.426;2022-08-20T07:25:37;100925.28;;;21.51;100.00
56928;BME280;60850;52.502;13.426;2022-08-20T07:28:05;100935.06;;;21.54;100.00
56928;BME280;60850;52.502;13.426;2022-08-20T07:30:34;100935.16;;;21.52;100.00
56928;BME280;60850;52.502;13.426;2022-08-20T07:33:19;100937.75;;;21.54;100.00
56928;BME280;60850;52.502;13.426;2022-08-20T07:35:46;100947.00;;;21.51;100.00
56928;BME280;60850;52.502;13.426;2022-08-20T07:38:17;100948.28;;;21.46;100.00
56928;BME280;60850;52.502;13.426;2022-08-20T07:40:50;100948.50;;;21.43;100.00
56928;BME280;60850;52.502;13.426;2022-08-20T07:43:17;100950.44;;;21.41;100.00
56928;BME280;60850;52.502;13.426;2022-08-20T07:45:46;100949.38;;;21.43;100.00
56928;BME280;60850;52.502;13.426;2022-08-20T07:48:14;100947.53;;;21.44;100.00
56928;BME280;60850;52.502;13.426;2022-08-20T07:50:41;100941.88;;;21.47;100.00
56928;BME280;60850;52.502;13.426;2022-08-20T07:53:09;100945.34;;;21.49;100.00
56928;BME280;60850;52.502;13.426;2022-08-20T07:55:38;100952.44;;;21.51;100.00
56928;BME280;60850;52.502;13.426;2022-08-20T07:58:10;100949.59;;;21.53;100.00
56928;BME280;60850;52.502;13.426;2022-08-20T08:00:38;100953.28;;;21.52;100.00
56928;BME280;60850;52.502;13.426;2022-08-20T08:03:05;100955.78;;;21.55;100.00
56928;BME280;60850;52.502;13.426;2022-08-20T08:05:36;100952.00;;;21.57;100.00
56928;BME280;60850;52.502;13.426;2022-08-20T08:08:06;100946.34;;;21.60;100.00
56928;BME280;60850;52.502;13.426;2022-08-20T08:10:34;100951.47;;;21.65;100.00
56928;BME280;60850;52.502;13.426;2022-08-20T08:13:07;100953.97;;;21.68;100.00
56928;BME280;60850;52.502;13.426;2022-08-20T08:15:36;100948.34;;;21.71;100.00
56928;BME280;60850;52.502;13.426;2022-08-20T08:18:07;100956.97;;;21.63;100.00
56928;BME280;60850;52.502;13.426;2022-08-20T08:20:39;100963.31;;;21.64;100.00
56928;BME280;60850;52.502;13.426;2022-08-20T08:23:07;100957.44;;;21.70;100.00
56928;BME280;60850;52.502;13.426;2022-08-20T08:25:36;100966.78;;;21.66;100.00
56928;BME280;60850;52.502;13.426;2022-08-20T08:28:04;100962.22;;;21.66;100.00
56928;BME280;60850;52.502;13.426;2022-08-20T08:30:32;100968.28;;;21.70;100.00
56928;BME280;60850;52.502;13.426;2022-08-20T08:32:58;100974.56;;;21.71;100.00
56928;BME280;60850;52.502;13.426;2022-08-20T08:35:43;100971.56;;;21.75;100.00
56928;BME280;60850;52.502;13.426;2022-08-20T08:38:11;100971.34;;;21.78;100.00
56928;BME280;60850;52.502;13.426;2022-08-20T08:40:38;100964.59;;;21.84;100.00
56928;BME280;60850;52.502;13.426;2022-08-20T08:43:10;100970.81;;;21.86;100.00
56928;BME280;60850;52.502;13.426;2022-08-20T08:45:39;100966.78;;;21.79;100.00
56928;BME280;60850;52.502;13.426;2022-08-20T08:48:11;100976.69;;;21.80;100.00
56928;BME280;60850;52.502;13.426;2022-08-20T08:50:39;100975.69;;;21.81;100.00
56928;BME280;60850;52.502;13.426;2022-08-20T08:53:14;100971.16;;;21.94;100.00
56928;BME280;60850;52.502;13.426;2022-08-20T08:55:44;100974.06;;;22.04;100.00
56928;BME280;60850;52.502;13.426;2022-08-20T08:58:12;100967.25;;;22.11;100.00
56928;BME280;60850;52.502;13.426;2022-08-20T09:00:39;100975.22;;;22.14;100.00
56928;BME280;60850;52.502;13.426;2022-08-20T09:03:16;100974.00;;;22.18;100.00
56928;BME280;60850;52.502;13.426;2022-08-20T09:05:47;100972.06;;;22.20;100.00
56928;BME280;60850;52.502;13.426;2022-08-20T09:08:18;100971.41;;;22.16;100.00
56928;BME280;60850;52.502;13.426;2022-08-20T09:10:48;100970.59;;;22.02;100.00
56928;BME280;60850;52.502;13.426;2022-08-20T09:13:17;100974.78;;;22.20;100.00
56928;BME280;60850;52.502;13.426;2022-08-20T09:15:44;100975.84;;;22.30;100.00
56928;BME280;60850;52.502;13.426;2022-08-20T09:18:11;100978.44;;;22.44;100.00
56928;BME280;60850;52.502;13.426;2022-08-20T09:20:38;100982.19;;;22.55;100.00
56928;BME280;60850;52.502;13.426;2022-08-20T09:23:05;100994.91;;;22.67;100.00
56928;BME280;60850;52.502;13.426;2022-08-20T09:25:32;100988.28;;;22.71;100.00
56928;BME280;60850;52.502;13.426;2022-08-20T09:27:59;100988.03;;;22.74;100.00
56928;BME280;60850;52.502;13.426;2022-08-20T09:30:27;100987.75;;;22.66;100.00
56928;BME280;60850;52.502;13.426;2022-08-20T09:32:57;100989.91;;;22.61;100.00
56928;BME280;60850;52.502;13.426;2022-08-20T09:35:24;100990.69;;;22.63;100.00
56928;BME280;60850;52.502;13.426;2022-08-20T09:37:52;100992.13;;;22.56;100.00
56928;BME280;60850;52.502;13.426;2022-08-20T09:40:20;100993.19;;;22.40;100.00
56928;BME280;60850;52.502;13.426;2022-08-20T09:42:47;100988.75;;;22.27;100.00
56928;BME280;60850;52.502;13.426;2022-08-20T09:45:15;100990.53;;;22.28;100.00
56928;BME280;60850;52.502;13.426;2022-08-20T09:47:43;100988.88;;;22.25;100.00
56928;BME280;60850;52.502;13.426;2022-08-20T09:50:10;100992.44;;;22.13;100.00
56928;BME280;60850;52.502;13.426;2022-08-20T09:52:40;100987.38;;;22.08;100.00
56928;BME280;60850;52.502;13.426;2022-08-20T09:55:16;100988.00;;;22.12;100.00
56928;BME280;60850;52.502;13.426;2022-08-20T09:57:44;100990.72;;;22.12;100.00
56928;BME280;60850;52.502;13.426;2022-08-20T10:00:12;100984.31;;;22.13;100.00
56928;BME280;60850;52.502;13.426;2022-08-20T10:02:40;100991.72;;;22.24;100.00
56928;BME280;60850;52.502;13.426;2022-08-20T10:05:09;100991.25;;;22.42;100.00
56928;BME280;60850;52.502;13.426;2022-08-20T10:07:37;100986.03;;;22.52;100.00
56928;BME280;60850;52.502;13.426;2022-08-20T10:10:06;100985.03;;;22.66;100.00
56928;BME280;60850;52.502;13.426;2022-08-20T10:12:34;100987.34;;;22.83;100.00
56928;BME280;60850;52.502;13.426;2022-08-20T10:15:01;100978.84;;;23.00;100.00
56928;BME280;60850;52.502;13.426;2022-08-20T10:17:28;100980.31;;;23.17;100.00
56928;BME280;60850;52.502;13.426;2022-08-20T10:19:55;100988.28;;;23.32;100.00
56928;BME280;60850;52.502;13.426;2022-08-20T10:22:24;100988.69;;;23.38;100.00
56928;BME280;60850;52.502;13.426;2022-08-20T10:24:51;100981.75;;;23.34;100.00
56928;BME280;60850;52.502;13.426;2022-08-20T10:27:19;100992.66;;;23.34;100.00
56928;BME280;60850;52.502;13.426;2022-08-20T10:29:46;100982.16;;;23.41;100.00
56928;BME280;60850;52.502;13.426;2022-08-20T10:32:14;100982.66;;;23.46;100.00
56928;BME280;60850;52.502;13.426;2022-08-20T10:34:43;100981.09;;;23.54;100.00
56928;BME280;60850;52.502;13.426;2022-08-20T10:37:14;100982.69;;;23.70;100.00
56928;BME280;60850;52.502;13.426;2022-08-20T10:39:44;100978.28;;;23.91;100.00
56928;BME280;60850;52.502;13.426;2022-08-20T10:42:11;100972.59;;;24.05;100.00
56928;BME280;60850;52.502;13.426;2022-08-20T10:44:39;100976.34;;;24.27;100.00
56928;BME280;60850;52.502;13.426;2022-08-20T10:47:14;100988.88;;;24.41;100.00
56928;BME280;60850;52.502;13.426;2022-08-20T10:49:42;100989.38;;;24.57;100.00
56928;BME280;60850;52.502;13.426;2022-08-20T10:52:09;100977.25;;;24.61;100.00
56928;BME280;60850;52.502;13.426;2022-08-20T10:54:35;100981.06;;;24.58;100.00
56928;BME280;60850;52.502;13.426;2022-08-20T10:57:08;100973.88;;;24.69;100.00
56928;BME280;60850;52.502;13.426;2022-08-20T10:59:39;100987.63;;;24.78;100.00
56928;BME280;60850;52.502;13.426;2022-08-20T11:02:06;100994.53;;;24.93;100.00
56928;BME280;60850;52.502;13.426;2022-08-20T11:04:35;100994.56;;;25.05;100.00
56928;BME280;60850;52.502;13.426;2022-08-20T11:07:16;100994.50;;;25.16;100.00
56928;BME280;60850;52.502;13.426;2022-08-20T11:09:44;100989.94;;;25.16;100.00
56928;BME280;60850;52.502;13.426;2022-08-20T11:12:14;100992.91;;;25.13;100.00
56928;BME280;60850;52.502;13.426;2022-08-20T11:14:41;100997.38;;;25.03;100.00
56928;BME280;60850;52.502;13.426;2022-08-20T11:17:08;100997.16;;;24.84;100.00
56928;BME280;60850;52.502;13.426;2022-08-20T11:19:38;101006.72;;;24.67;100.00
56928;BME280;60850;52.502;13.426;2022-08-20T11:22:06;101004.75;;;24.47;100.00
56928;BME280;60850;52.502;13.426;2022-08-20T11:24:33;100997.69;;;24.33;100.00
56928;BME280;60850;52.502;13.426;2022-08-20T11:27:00;100998.88;;;24.29;100.00
56928;BME280;60850;52.502;13.426;2022-08-20T11:29:29;101000.13;;;24.25;100.00
56928;BME280;60850;52.502;13.426;2022-08-20T11:31:56;101001.22;;;24.22;100.00
56928;BME280;60850;52.502;13.426;2022-08-20T11:34:23;100995.38;;;24.16;100.00
56928;BME280;60850;52.502;13.426;2022-08-20T11:36:51;101002.31;;;24.08;100.00
56928;BME280;60850;52.502;13.426;2022-08-20T11:39:18;101008.00;;;24.05;100.00
56928;BME280;60850;52.502;13.426;2022-08-20T11:41:45;101000.94;;;24.03;100.00
56928;BME280;60850;52.502;13.426;2022-08-20T11:44:12;101003.56;;;24.04;100.00
56928;BME280;60850;52.502;13.426;2022-08-20T11:46:41;101002.56;;;24.05;100.00
56928;BME280;60850;52.502;13.426;2022-08-20T11:49:08;100999.97;;;24.04;100.00
56928;BME280;60850;52.502;13.426;2022-08-20T11:51:35;101002.66;;;23.93;100.00
56928;BME280;60850;52.502;13.426;2022-08-20T11:54:02;101009.44;;;23.87;100.00
56928;BME280;60850;52.502;13.426;2022-08-20T11:56:29;101006.72;;;23.87;100.00
56928;BME280;60850;52.502;13.426;2022-08-20T11:58:57;101003.47;;;23.82;100.00
56928;BME280;60850;52.502;13.426;2022-08-20T12:01:24;101007.44;;;23.78;100.00
56928;BME280;60850;52.502;13.426;2022-08-20T12:03:52;101007.06;;;23.71;100.00
56928;BME280;60850;52.502;13.426;2022-08-20T12:06:19;101014.81;;;23.65;100.00
56928;BME280;60850;52.502;13.426;2022-08-20T12:08:46;101011.78;;;23.56;100.00
56928;BME280;60850;52.502;13.426;2022-08-20T12:11:13;101017.06;;;23.47;100.00
56928;BME280;60850;52.502;13.426;2022-08-20T12:13:40;101013.84;;;23.42;100.00
56928;BME280;60850;52.502;13.426;2022-08-20T12:16:07;101012.19;;;23.39;100.00
56928;BME280;60850;52.502;13.426;2022-08-20T12:18:34;100999.44;;;23.40;100.00
56928;BME280;60850;52.502;13.426;2022-08-20T12:21:03;101001.63;;;23.47;100.00
56928;BME280;60850;52.502;13.426;2022-08-20T12:23:30;101007.53;;;23.41;100.00
56928;BME280;60850;52.502;13.426;2022-08-20T12:25:57;101007.41;;;23.43;100.00
56928;BME280;60850;52.502;13.426;2022-08-20T12:28:27;101004.34;;;23.47;100.00
56928;BME280;60850;52.502;13.426;2022-08-20T12:30:54;101015.22;;;23.47;100.00
56928;BME280;60850;52.502;13.426;2022-08-20T12:33:24;101009.66;;;23.49;100.00
56928;BME280;60850;52.502;13.426;2022-08-20T12:35:51;101017.06;;;23.47;100.00
56928;BME280;60850;52.502;13.426;2022-08-20T12:38:20;101014.09;;;23.50;100.00